sensor_id;sensor_type;location;lat;lon;timestamp;P1;durP1;ratioP1;P2;durP2;ratioP2
64353;SDS011;50681;53.334;-6.536;2023-07-09T00:01:51;20.15;;;3.85;;
64353;SDS011;50681;53.334;-6.536;2023-07-09T00:04:17;19.33;;;2.90;;
64353;SDS011;50681;53.334;-6.536;2023-07-09T00:06:43;13.40;;;3.28;;
64353;SDS011;50681;53.334;-6.536;2023-07-09T00:09:18;16.95;;;2.85;;
64353;SDS011;50681;53.334;-6.536;2023-07-09T00:11:46;16.70;;;3.08;;
64353;SDS011;50681;53.334;-6.536;2023-07-09T00:14:12;12.88;;;2.20;;
64353;SDS011;50681;53.334;-6.536;2023-07-09T00:16:40;18.75;;;3.17;;
64353;SDS011;50681;53.334;-6.536;2023-07-09T00:19:13;22.33;;;3.00;;
64353;SDS011;50681;53.334;-6.536;2023-07-09T00:21:43;11.25;;;2.67;;
64353;SDS011;50681;53.334;-6.536;2023-07-09T00:24:10;9.32;;;2.45;;
64353;SDS011;50681;53.334;-6.536;2023-07-09T00:26:39;13.13;;;3.00;;
64353;SDS011;50681;53.334;-6.536;2023-07-09T00:29:08;21.52;;;3.40;;
64353;SDS011;50681;53.334;-6.536;2023-07-09T00:31:38;19.70;;;3.60;;
64353;SDS011;50681;53.334;-6.536;2023-07-09T00:34:06;14.10;;;2.70;;
64353;SDS011;50681;53.334;-6.536;2023-07-09T00:36:38;22.95;;;3.35;;
64353;SDS011;50681;53.334;-6.536;2023-07-09T00:39:03;19.20;;;3.15;;
64353;SDS011;50681;53.334;-6.536;2023-07-09T00:41:33;19.33;;;3.15;;
64353;SDS011;50681;53.334;-6.536;2023-07-09T00:44:18;17.10;;;3.35;;
64353;SDS011;50681;53.334;-6.536;2023-07-09T00:49:15;24.10;;;2.95;;
64353;SDS011;50681;53.334;-6.536;2023-07-09T00:51:51;13.82;;;2.55;;
64353;SDS011;50681;53.334;-6.536;2023-07-09T00:56:44;18.92;;;2.97;;
64353;SDS011;50681;53.334;-6.536;2023-07-09T00:59:16;16.17;;;3.10;;
64353;SDS011;50681;53.334;-6.536;2023-07-09T01:01:45;16.05;;;2.97;;
64353;SDS011;50681;53.334;-6.536;2023-07-09T01:04:15;11.65;;;3.05;;
64353;SDS011;50681;53.334;-6.536;2023-07-09T01:06:50;17.30;;;3.65;;
64353;SDS011;50681;53.334;-6.536;2023-07-09T01:09:18;15.40;;;2.70;;
64353;SDS011;50681;53.334;-6.536;2023-07-09T01:14:10;20.75;;;3.00;;
64353;SDS011;50681;53.334;-6.536;2023-07-09T01:16:49;16.15;;;2.67;;
64353;SDS011;50681;53.334;-6.536;2023-07-09T01:19:26;16.92;;;2.92;;
64353;SDS011;50681;53.334;-6.536;2023-07-09T01:21:59;18.17;;;3.28;;
64353;SDS011;50681;53.334;-6.536;2023-07-09T01:24:46;21.58;;;3.10;;
64353;SDS011;50681;53.334;-6.536;2023-07-09T01:27:12;18.25;;;2.95;;
64353;SDS011;50681;53.334;-6.536;2023-07-09T01:29:37;18.67;;;3.40;;
64353;SDS011;50681;53.334;-6.536;2023-07-09T01:32:03;25.02;;;3.45;;
64353;SDS011;50681;53.334;-6.536;2023-07-09T01:34:31;19.15;;;3.20;;
64353;SDS011;50681;53.334;-6.536;2023-07-09T01:36:58;18.90;;;3.30;;
64353;SDS011;50681;53.334;-6.536;2023-07-09T01:39:24;19.20;;;3.20;;
64353;SDS011;50681;53.334;-6.536;2023-07-09T01:41:50;14.82;;;3.00;;
64353;SDS011;50681;53.334;-6.536;2023-07-09T01:44:16;23.30;;;3.00;;
64353;SDS011;50681;53.334;-6.536;2023-07-09T01:46:42;19.30;;;3.05;;
64353;SDS011;50681;53.334;-6.536;2023-07-09T01:49:07;15.57;;;2.87;;
64353;SDS011;50681;53.334;-6.536;2023-07-09T01:56:31;17.23;;;3.13;;
64353;SDS011;50681;53.334;-6.536;2023-07-09T01:58:56;20.20;;;3.15;;
64353;SDS011;50681;53.334;-6.536;2023-07-09T02:01:26;18.17;;;2.80;;
64353;SDS011;50681;53.334;-6.536;2023-07-09T02:03:53;15.63;;;2.92;;
64353;SDS011;50681;53.334;-6.536;2023-07-09T02:06:19;19.63;;;3.17;;
64353;SDS011;50681;53.334;-6.536;2023-07-09T02:08:45;19.30;;;3.35;;
64353;SDS011;50681;53.334;-6.536;2023-07-09T02:11:11;14.73;;;2.65;;
64353;SDS011;50681;53.334;-6.536;2023-07-09T02:13:36;14.05;;;2.90;;
64353;SDS011;50681;53.334;-6.536;2023-07-09T02:16:02;19.07;;;2.83;;
64353;SDS011;50681;53.334;-6.536;2023-07-09T02:18:28;14.37;;;2.97;;
64353;SDS011;50681;53.334;-6.536;2023-07-09T02:20:53;14.90;;;3.30;;
64353;SDS011;50681;53.334;-6.536;2023-07-09T02:23:19;17.03;;;3.10;;
64353;SDS011;50681;53.334;-6.536;2023-07-09T02:25:44;17.00;;;3.20;;
64353;SDS011;50681;53.334;-6.536;2023-07-09T02:28:10;15.37;;;2.60;;
64353;SDS011;50681;53.334;-6.536;2023-07-09T02:30:35;17.20;;;2.83;;
64353;SDS011;50681;53.334;-6.536;2023-07-09T02:33:01;19.33;;;3.07;;
64353;SDS011;50681;53.334;-6.536;2023-07-09T02:35:27;18.13;;;3.60;;
64353;SDS011;50681;53.334;-6.536;2023-07-09T02:37:52;17.63;;;2.87;;
64353;SDS011;50681;53.334;-6.536;2023-07-09T02:40:18;19.17;;;3.03;;
64353;SDS011;50681;53.334;-6.536;2023-07-09T02:42:43;15.73;;;2.50;;
64353;SDS011;50681;53.334;-6.536;2023-07-09T02:45:11;14.75;;;2.45;;
64353;SDS011;50681;53.334;-6.536;2023-07-09T02:47:37;14.37;;;2.97;;
64353;SDS011;50681;53.334;-6.536;2023-07-09T02:50:02;15.17;;;2.30;;
64353;SDS011;50681;53.334;-6.536;2023-07-09T02:52:28;25.52;;;3.25;;
64353;SDS011;50681;53.334;-6.536;2023-07-09T02:54:54;17.70;;;2.77;;
64353;SDS011;50681;53.334;-6.536;2023-07-09T02:57:19;20.60;;;3.03;;
64353;SDS011;50681;53.334;-6.536;2023-07-09T02:59:44;20.90;;;3.00;;
64353;SDS011;50681;53.334;-6.536;2023-07-09T03:02:10;17.20;;;3.13;;
64353;SDS011;50681;53.334;-6.536;2023-07-09T03:04:36;18.25;;;3.30;;
64353;SDS011;50681;53.334;-6.536;2023-07-09T03:07:01;14.70;;;2.33;;
64353;SDS011;50681;53.334;-6.536;2023-07-09T03:09:28;13.55;;;2.60;;
64353;SDS011;50681;53.334;-6.536;2023-07-09T03:11:53;9.35;;;2.22;;
64353;SDS011;50681;53.334;-6.536;2023-07-09T03:14:19;17.15;;;2.97;;
64353;SDS011;50681;53.334;-6.536;2023-07-09T03:16:45;16.80;;;3.22;;
64353;SDS011;50681;53.334;-6.536;2023-07-09T03:19:11;11.95;;;2.70;;
64353;SDS011;50681;53.334;-6.536;2023-07-09T03:21:36;10.05;;;2.50;;
64353;SDS011;50681;53.334;-6.536;2023-07-09T03:24:02;23.10;;;3.13;;
64353;SDS011;50681;53.334;-6.536;2023-07-09T03:26:28;15.45;;;2.40;;
64353;SDS011;50681;53.334;-6.536;2023-07-09T03:28:53;16.67;;;2.57;;
64353;SDS011;50681;53.334;-6.536;2023-07-09T03:31:20;19.60;;;2.60;;
64353;SDS011;50681;53.334;-6.536;2023-07-09T03:33:46;20.70;;;3.10;;
64353;SDS011;50681;53.334;-6.536;2023-07-09T03:36:13;15.68;;;3.17;;
64353;SDS011;50681;53.334;-6.536;2023-07-09T03:38:39;16.38;;;2.83;;
64353;SDS011;50681;53.334;-6.536;2023-07-09T03:41:04;17.10;;;3.60;;
64353;SDS011;50681;53.334;-6.536;2023-07-09T03:43:30;17.27;;;2.87;;
64353;SDS011;50681;53.334;-6.536;2023-07-09T03:45:55;13.65;;;2.95;;
64353;SDS011;50681;53.334;-6.536;2023-07-09T03:48:21;15.63;;;3.60;;
64353;SDS011;50681;53.334;-6.536;2023-07-09T03:50:47;11.27;;;2.37;;
64353;SDS011;50681;53.334;-6.536;2023-07-09T03:53:13;23.85;;;2.83;;
64353;SDS011;50681;53.334;-6.536;2023-07-09T03:55:39;18.88;;;3.15;;
64353;SDS011;50681;53.334;-6.536;2023-07-09T03:58:05;14.70;;;2.93;;
64353;SDS011;50681;53.334;-6.536;2023-07-09T04:00:31;10.60;;;2.78;;
64353;SDS011;50681;53.334;-6.536;2023-07-09T04:02:57;21.23;;;3.05;;
64353;SDS011;50681;53.334;-6.536;2023-07-09T04:05:25;15.87;;;2.90;;
64353;SDS011;50681;53.334;-6.536;2023-07-09T04:07:52;17.35;;;3.42;;
64353;SDS011;50681;53.334;-6.536;2023-07-09T04:10:18;14.73;;;2.85;;
64353;SDS011;50681;53.334;-6.536;2023-07-09T04:15:10;22.88;;;3.05;;
64353;SDS011;50681;53.334;-6.536;2023-07-09T04:17:37;14.32;;;3.13;;
64353;SDS011;50681;53.334;-6.536;2023-07-09T04:20:04;14.93;;;2.65;;
64353;SDS011;50681;53.334;-6.536;2023-07-09T04:22:34;16.25;;;3.45;;
64353;SDS011;50681;53.334;-6.536;2023-07-09T04:25:00;17.00;;;2.97;;
64353;SDS011;50681;53.334;-6.536;2023-07-09T04:27:25;11.03;;;2.33;;
64353;SDS011;50681;53.334;-6.536;2023-07-09T04:29:54;17.67;;;3.20;;
64353;SDS011;50681;53.334;-6.536;2023-07-09T04:32:20;17.30;;;3.40;;
64353;SDS011;50681;53.334;-6.536;2023-07-09T04:34:46;13.85;;;3.15;;
64353;SDS011;50681;53.334;-6.536;2023-07-09T04:37:12;19.08;;;3.53;;
64353;SDS011;50681;53.334;-6.536;2023-07-09T04:39:38;21.15;;;3.22;;
64353;SDS011;50681;53.334;-6.536;2023-07-09T04:44:31;21.55;;;3.75;;
64353;SDS011;50681;53.334;-6.536;2023-07-09T04:46:56;27.97;;;3.60;;
64353;SDS011;50681;53.334;-6.536;2023-07-09T04:49:22;16.30;;;3.23;;
64353;SDS011;50681;53.334;-6.536;2023-07-09T04:51:48;19.80;;;3.13;;
64353;SDS011;50681;53.334;-6.536;2023-07-09T04:54:13;18.02;;;3.08;;
64353;SDS011;50681;53.334;-6.536;2023-07-09T04:59:05;14.48;;;3.20;;
64353;SDS011;50681;53.334;-6.536;2023-07-09T05:01:31;17.77;;;3.23;;
64353;SDS011;50681;53.334;-6.536;2023-07-09T05:03:56;19.53;;;3.63;;
64353;SDS011;50681;53.334;-6.536;2023-07-09T05:06:22;18.20;;;3.30;;
64353;SDS011;50681;53.334;-6.536;2023-07-09T05:08:47;14.50;;;3.10;;
64353;SDS011;50681;53.334;-6.536;2023-07-09T05:11:13;18.60;;;2.92;;
64353;SDS011;50681;53.334;-6.536;2023-07-09T05:13:40;21.42;;;3.35;;
64353;SDS011;50681;53.334;-6.536;2023-07-09T05:16:06;19.60;;;3.40;;
64353;SDS011;50681;53.334;-6.536;2023-07-09T05:18:31;20.87;;;3.50;;
64353;SDS011;50681;53.334;-6.536;2023-07-09T05:20:57;19.08;;;3.20;;
64353;SDS011;50681;53.334;-6.536;2023-07-09T05:23:24;10.13;;;2.37;;
64353;SDS011;50681;53.334;-6.536;2023-07-09T05:25:55;15.18;;;3.38;;
64353;SDS011;50681;53.334;-6.536;2023-07-09T05:28:21;19.80;;;3.10;;
64353;SDS011;50681;53.334;-6.536;2023-07-09T05:30:47;19.07;;;3.33;;
64353;SDS011;50681;53.334;-6.536;2023-07-09T05:33:13;14.17;;;2.87;;
64353;SDS011;50681;53.334;-6.536;2023-07-09T05:35:38;24.67;;;3.63;;
64353;SDS011;50681;53.334;-6.536;2023-07-09T05:38:03;19.73;;;2.93;;
64353;SDS011;50681;53.334;-6.536;2023-07-09T05:40:29;16.27;;;3.43;;
64353;SDS011;50681;53.334;-6.536;2023-07-09T05:42:55;17.67;;;3.25;;
64353;SDS011;50681;53.334;-6.536;2023-07-09T05:45:20;19.30;;;3.50;;
64353;SDS011;50681;53.334;-6.536;2023-07-09T05:47:46;17.53;;;2.97;;
64353;SDS011;50681;53.334;-6.536;2023-07-09T05:50:11;19.30;;;3.30;;
64353;SDS011;50681;53.334;-6.536;2023-07-09T05:52:36;22.07;;;3.80;;
64353;SDS011;50681;53.334;-6.536;2023-07-09T05:55:02;20.33;;;3.50;;
64353;SDS011;50681;53.334;-6.536;2023-07-09T05:57:28;16.35;;;3.10;;
64353;SDS011;50681;53.334;-6.536;2023-07-09T05:59:53;15.53;;;3.03;;
64353;SDS011;50681;53.334;-6.536;2023-07-09T06:02:20;21.07;;;3.73;;
64353;SDS011;50681;53.334;-6.536;2023-07-09T06:04:46;22.95;;;3.42;;
64353;SDS011;50681;53.334;-6.536;2023-07-09T06:07:14;23.85;;;3.10;;
64353;SDS011;50681;53.334;-6.536;2023-07-09T06:09:40;22.73;;;3.35;;
64353;SDS011;50681;53.334;-6.536;2023-07-09T06:12:06;19.40;;;3.67;;
64353;SDS011;50681;53.334;-6.536;2023-07-09T06:14:32;17.55;;;3.85;;
64353;SDS011;50681;53.334;-6.536;2023-07-09T06:16:58;19.75;;;3.13;;
64353;SDS011;50681;53.334;-6.536;2023-07-09T06:19:24;18.80;;;3.40;;
64353;SDS011;50681;53.334;-6.536;2023-07-09T06:21:50;24.20;;;3.15;;
64353;SDS011;50681;53.334;-6.536;2023-07-09T06:24:15;22.20;;;3.40;;
64353;SDS011;50681;53.334;-6.536;2023-07-09T06:26:41;13.63;;;2.80;;
64353;SDS011;50681;53.334;-6.536;2023-07-09T06:29:06;19.23;;;3.50;;
64353;SDS011;50681;53.334;-6.536;2023-07-09T06:31:32;18.20;;;3.27;;
64353;SDS011;50681;53.334;-6.536;2023-07-09T06:33:57;20.60;;;3.50;;
64353;SDS011;50681;53.334;-6.536;2023-07-09T06:36:23;21.60;;;3.53;;
64353;SDS011;50681;53.334;-6.536;2023-07-09T06:38:48;16.50;;;3.53;;
64353;SDS011;50681;53.334;-6.536;2023-07-09T06:41:14;20.77;;;3.17;;
64353;SDS011;50681;53.334;-6.536;2023-07-09T06:43:40;23.77;;;3.25;;
64353;SDS011;50681;53.334;-6.536;2023-07-09T06:46:07;18.00;;;4.00;;
64353;SDS011;50681;53.334;-6.536;2023-07-09T06:48:35;19.25;;;3.33;;
64353;SDS011;50681;53.334;-6.536;2023-07-09T06:51:00;18.10;;;3.00;;
64353;SDS011;50681;53.334;-6.536;2023-07-09T06:53:26;17.80;;;3.17;;
64353;SDS011;50681;53.334;-6.536;2023-07-09T06:55:53;19.02;;;3.00;;
64353;SDS011;50681;53.334;-6.536;2023-07-09T06:58:20;23.77;;;4.00;;
64353;SDS011;50681;53.334;-6.536;2023-07-09T07:00:50;16.20;;;3.35;;
64353;SDS011;50681;53.334;-6.536;2023-07-09T07:03:15;21.45;;;3.75;;
64353;SDS011;50681;53.334;-6.536;2023-07-09T07:05:44;21.52;;;3.30;;
64353;SDS011;50681;53.334;-6.536;2023-07-09T07:08:12;18.05;;;3.45;;
64353;SDS011;50681;53.334;-6.536;2023-07-09T07:10:40;20.08;;;3.25;;
64353;SDS011;50681;53.334;-6.536;2023-07-09T07:13:05;24.42;;;3.75;;
64353;SDS011;50681;53.334;-6.536;2023-07-09T07:15:31;19.63;;;3.40;;
64353;SDS011;50681;53.334;-6.536;2023-07-09T07:17:56;21.20;;;3.60;;
64353;SDS011;50681;53.334;-6.536;2023-07-09T07:20:22;19.15;;;3.20;;
64353;SDS011;50681;53.334;-6.536;2023-07-09T07:22:48;18.00;;;2.87;;
64353;SDS011;50681;53.334;-6.536;2023-07-09T07:25:14;23.70;;;3.13;;
64353;SDS011;50681;53.334;-6.536;2023-07-09T07:30:05;17.45;;;3.30;;
64353;SDS011;50681;53.334;-6.536;2023-07-09T07:32:36;18.40;;;2.97;;
64353;SDS011;50681;53.334;-6.536;2023-07-09T07:35:03;14.50;;;3.00;;
64353;SDS011;50681;53.334;-6.536;2023-07-09T07:37:29;15.98;;;3.03;;
64353;SDS011;50681;53.334;-6.536;2023-07-09T07:39:54;22.13;;;4.03;;
64353;SDS011;50681;53.334;-6.536;2023-07-09T07:42:19;22.60;;;3.20;;
64353;SDS011;50681;53.334;-6.536;2023-07-09T07:44:45;16.37;;;3.13;;
64353;SDS011;50681;53.334;-6.536;2023-07-09T07:47:10;16.63;;;3.67;;
64353;SDS011;50681;53.334;-6.536;2023-07-09T07:52:02;19.90;;;3.08;;
64353;SDS011;50681;53.334;-6.536;2023-07-09T07:54:28;14.80;;;3.50;;
64353;SDS011;50681;53.334;-6.536;2023-07-09T07:56:55;17.77;;;3.10;;
64353;SDS011;50681;53.334;-6.536;2023-07-09T07:59:20;15.88;;;2.45;;
64353;SDS011;50681;53.334;-6.536;2023-07-09T08:01:46;15.93;;;3.70;;
64353;SDS011;50681;53.334;-6.536;2023-07-09T08:04:11;16.57;;;3.53;;
64353;SDS011;50681;53.334;-6.536;2023-07-09T08:06:36;15.93;;;3.20;;
64353;SDS011;50681;53.334;-6.536;2023-07-09T08:09:02;17.40;;;3.27;;
64353;SDS011;50681;53.334;-6.536;2023-07-09T08:11:27;12.73;;;2.87;;
64353;SDS011;50681;53.334;-6.536;2023-07-09T08:13:54;15.43;;;2.75;;
64353;SDS011;50681;53.334;-6.536;2023-07-09T08:16:20;14.95;;;3.38;;
64353;SDS011;50681;53.334;-6.536;2023-07-09T08:18:46;14.82;;;2.53;;
64353;SDS011;50681;53.334;-6.536;2023-07-09T08:21:11;18.40;;;3.07;;
64353;SDS011;50681;53.334;-6.536;2023-07-09T08:23:37;15.77;;;3.70;;
64353;SDS011;50681;53.334;-6.536;2023-07-09T08:26:03;13.48;;;3.40;;
64353;SDS011;50681;53.334;-6.536;2023-07-09T08:28:29;16.77;;;3.35;;
64353;SDS011;50681;53.334;-6.536;2023-07-09T08:30:55;11.40;;;3.05;;
64353;SDS011;50681;53.334;-6.536;2023-07-09T08:33:22;13.88;;;3.05;;
64353;SDS011;50681;53.334;-6.536;2023-07-09T08:38:17;13.63;;;3.08;;
64353;SDS011;50681;53.334;-6.536;2023-07-09T08:40:57;14.73;;;2.90;;
64353;SDS011;50681;53.334;-6.536;2023-07-09T08:46:10;16.27;;;3.13;;
64353;SDS011;50681;53.334;-6.536;2023-07-09T08:48:41;16.00;;;3.00;;
64353;SDS011;50681;53.334;-6.536;2023-07-09T08:51:11;15.45;;;2.83;;
64353;SDS011;50681;53.334;-6.536;2023-07-09T08:53:56;13.82;;;2.63;;
64353;SDS011;50681;53.334;-6.536;2023-07-09T08:56:23;15.10;;;3.00;;
64353;SDS011;50681;53.334;-6.536;2023-07-09T08:58:50;13.25;;;2.95;;
64353;SDS011;50681;53.334;-6.536;2023-07-09T09:01:26;10.65;;;2.80;;
64353;SDS011;50681;53.334;-6.536;2023-07-09T09:04:02;7.35;;;2.00;;
64353;SDS011;50681;53.334;-6.536;2023-07-09T09:06:34;10.45;;;1.75;;
64353;SDS011;50681;53.334;-6.536;2023-07-09T09:17:16;7.38;;;1.90;;
64353;SDS011;50681;53.334;-6.536;2023-07-09T09:22:10;3.37;;;1.00;;
64353;SDS011;50681;53.334;-6.536;2023-07-09T09:27:52;2.45;;;0.85;;
64353;SDS011;50681;53.334;-6.536;2023-07-09T09:30:19;3.08;;;0.95;;
64353;SDS011;50681;53.334;-6.536;2023-07-09T09:32:55;7.47;;;1.45;;
64353;SDS011;50681;53.334;-6.536;2023-07-09T09:35:30;11.27;;;1.25;;
64353;SDS011;50681;53.334;-6.536;2023-07-09T09:37:58;8.23;;;1.33;;
64353;SDS011;50681;53.334;-6.536;2023-07-09T09:40:24;4.35;;;1.20;;
64353;SDS011;50681;53.334;-6.536;2023-07-09T09:42:55;5.75;;;1.17;;
64353;SDS011;50681;53.334;-6.536;2023-07-09T09:45:32;3.70;;;1.00;;
64353;SDS011;50681;53.334;-6.536;2023-07-09T09:48:00;6.75;;;1.00;;
64353;SDS011;50681;53.334;-6.536;2023-07-09T09:50:35;3.80;;;1.10;;
64353;SDS011;50681;53.334;-6.536;2023-07-09T09:53:00;5.03;;;1.23;;
64353;SDS011;50681;53.334;-6.536;2023-07-09T09:55:30;2.30;;;0.70;;
64353;SDS011;50681;53.334;-6.536;2023-07-09T09:57:57;3.80;;;1.02;;
64353;SDS011;50681;53.334;-6.536;2023-07-09T10:00:24;4.32;;;1.40;;
64353;SDS011;50681;53.334;-6.536;2023-07-09T10:03:02;5.43;;;1.40;;
64353;SDS011;50681;53.334;-6.536;2023-07-09T10:05:33;7.53;;;2.05;;
64353;SDS011;50681;53.334;-6.536;2023-07-09T10:08:08;10.50;;;2.17;;
64353;SDS011;50681;53.334;-6.536;2023-07-09T10:10:37;9.27;;;2.03;;
64353;SDS011;50681;53.334;-6.536;2023-07-09T10:24:22;11.95;;;2.05;;
64353;SDS011;50681;53.334;-6.536;2023-07-09T10:35:01;7.43;;;1.85;;
64353;SDS011;50681;53.334;-6.536;2023-07-09T10:40:46;8.95;;;1.77;;
64353;SDS011;50681;53.334;-6.536;2023-07-09T10:43:19;9.75;;;1.92;;
64353;SDS011;50681;53.334;-6.536;2023-07-09T10:45:53;9.45;;;2.65;;
64353;SDS011;50681;53.334;-6.536;2023-07-09T10:48:31;7.60;;;1.80;;
64353;SDS011;50681;53.334;-6.536;2023-07-09T10:51:02;10.70;;;1.83;;
64353;SDS011;50681;53.334;-6.536;2023-07-09T10:53:29;8.48;;;2.00;;
64353;SDS011;50681;53.334;-6.536;2023-07-09T10:56:10;7.63;;;2.50;;
64353;SDS011;50681;53.334;-6.536;2023-07-09T10:58:56;8.80;;;2.05;;
64353;SDS011;50681;53.334;-6.536;2023-07-09T11:01:40;15.88;;;2.25;;
64353;SDS011;50681;53.334;-6.536;2023-07-09T11:07:09;9.95;;;1.85;;
64353;SDS011;50681;53.334;-6.536;2023-07-09T11:09:42;16.65;;;2.20;;
64353;SDS011;50681;53.334;-6.536;2023-07-09T11:12:15;12.23;;;1.88;;
64353;SDS011;50681;53.334;-6.536;2023-07-09T11:14:52;12.80;;;2.28;;
64353;SDS011;50681;53.334;-6.536;2023-07-09T11:17:25;10.57;;;2.22;;
64353;SDS011;50681;53.334;-6.536;2023-07-09T11:20:00;9.82;;;1.77;;
64353;SDS011;50681;53.334;-6.536;2023-07-09T11:22:38;5.65;;;1.58;;
64353;SDS011;50681;53.334;-6.536;2023-07-09T11:25:06;10.73;;;1.80;;
64353;SDS011;50681;53.334;-6.536;2023-07-09T11:27:44;19.52;;;1.92;;
64353;SDS011;50681;53.334;-6.536;2023-07-09T11:32:45;10.77;;;2.28;;
64353;SDS011;50681;53.334;-6.536;2023-07-09T11:35:22;10.73;;;1.85;;
64353;SDS011;50681;53.334;-6.536;2023-07-09T11:37:50;6.57;;;1.65;;
64353;SDS011;50681;53.334;-6.536;2023-07-09T11:40:18;6.40;;;1.33;;
64353;SDS011;50681;53.334;-6.536;2023-07-09T11:42:51;6.25;;;1.48;;
64353;SDS011;50681;53.334;-6.536;2023-07-09T11:45:26;5.00;;;1.10;;
64353;SDS011;50681;53.334;-6.536;2023-07-09T11:50:41;4.35;;;1.52;;
64353;SDS011;50681;53.334;-6.536;2023-07-09T11:55:54;6.38;;;1.45;;
64353;SDS011;50681;53.334;-6.536;2023-07-09T11:58:19;5.13;;;2.10;;
64353;SDS011;50681;53.334;-6.536;2023-07-09T12:00:52;8.10;;;2.20;;
64353;SDS011;50681;53.334;-6.536;2023-07-09T12:03:22;8.80;;;2.22;;
64353;SDS011;50681;53.334;-6.536;2023-07-09T12:05:53;4.75;;;1.40;;
64353;SDS011;50681;53.334;-6.536;2023-07-09T12:08:23;8.10;;;1.50;;
64353;SDS011;50681;53.334;-6.536;2023-07-09T12:10:57;14.35;;;2.00;;
64353;SDS011;50681;53.334;-6.536;2023-07-09T12:13:22;10.17;;;1.43;;
64353;SDS011;50681;53.334;-6.536;2023-07-09T12:15:47;6.00;;;2.20;;
64353;SDS011;50681;53.334;-6.536;2023-07-09T12:18:14;14.27;;;4.68;;
64353;SDS011;50681;53.334;-6.536;2023-07-09T12:20:41;25.38;;;10.27;;
64353;SDS011;50681;53.334;-6.536;2023-07-09T12:23:23;41.42;;;18.25;;
64353;SDS011;50681;53.334;-6.536;2023-07-09T12:25:54;34.58;;;15.35;;
64353;SDS011;50681;53.334;-6.536;2023-07-09T12:30:47;15.60;;;6.68;;
64353;SDS011;50681;53.334;-6.536;2023-07-09T12:33:17;24.45;;;9.60;;
64353;SDS011;50681;53.334;-6.536;2023-07-09T12:35:47;23.83;;;7.15;;
64353;SDS011;50681;53.334;-6.536;2023-07-09T12:38:20;14.68;;;5.95;;
64353;SDS011;50681;53.334;-6.536;2023-07-09T12:40:48;9.85;;;3.13;;
64353;SDS011;50681;53.334;-6.536;2023-07-09T12:43:16;10.23;;;2.67;;
64353;SDS011;50681;53.334;-6.536;2023-07-09T12:45:49;4.70;;;1.38;;
64353;SDS011;50681;53.334;-6.536;2023-07-09T12:48:15;8.10;;;3.00;;
64353;SDS011;50681;53.334;-6.536;2023-07-09T12:50:41;12.82;;;6.88;;
64353;SDS011;50681;53.334;-6.536;2023-07-09T12:53:25;10.13;;;4.35;;
64353;SDS011;50681;53.334;-6.536;2023-07-09T12:55:55;7.05;;;3.20;;
64353;SDS011;50681;53.334;-6.536;2023-07-09T12:58:23;16.90;;;5.65;;
64353;SDS011;50681;53.334;-6.536;2023-07-09T13:00:54;6.45;;;2.15;;
64353;SDS011;50681;53.334;-6.536;2023-07-09T13:03:28;6.85;;;2.38;;
64353;SDS011;50681;53.334;-6.536;2023-07-09T13:05:56;9.48;;;3.10;;
64353;SDS011;50681;53.334;-6.536;2023-07-09T13:08:22;6.57;;;1.58;;
64353;SDS011;50681;53.334;-6.536;2023-07-09T13:10:48;8.18;;;1.70;;
64353;SDS011;50681;53.334;-6.536;2023-07-09T13:13:19;8.43;;;2.47;;
64353;SDS011;50681;53.334;-6.536;2023-07-09T13:16:04;4.50;;;1.15;;
64353;SDS011;50681;53.334;-6.536;2023-07-09T13:18:29;4.32;;;1.65;;
64353;SDS011;50681;53.334;-6.536;2023-07-09T13:20:56;11.38;;;1.40;;
64353;SDS011;50681;53.334;-6.536;2023-07-09T13:23:28;4.70;;;1.60;;
64353;SDS011;50681;53.334;-6.536;2023-07-09T13:25:57;5.82;;;2.35;;
64353;SDS011;50681;53.334;-6.536;2023-07-09T13:28:25;8.02;;;1.35;;
64353;SDS011;50681;53.334;-6.536;2023-07-09T13:30:52;6.10;;;1.50;;
64353;SDS011;50681;53.334;-6.536;2023-07-09T13:33:21;7.25;;;1.63;;
64353;SDS011;50681;53.334;-6.536;2023-07-09T13:35:48;4.60;;;1.05;;
64353;SDS011;50681;53.334;-6.536;2023-07-09T13:38:14;4.78;;;1.50;;
64353;SDS011;50681;53.334;-6.536;2023-07-09T13:40:42;5.38;;;1.42;;
64353;SDS011;50681;53.334;-6.536;2023-07-09T13:43:19;3.83;;;1.02;;
64353;SDS011;50681;53.334;-6.536;2023-07-09T13:45:51;7.03;;;1.45;;
64353;SDS011;50681;53.334;-6.536;2023-07-09T13:48:17;7.85;;;1.40;;
64353;SDS011;50681;53.334;-6.536;2023-07-09T13:50:49;4.75;;;1.30;;
64353;SDS011;50681;53.334;-6.536;2023-07-09T13:53:16;6.13;;;1.48;;
64353;SDS011;50681;53.334;-6.536;2023-07-09T13:55:43;5.45;;;1.50;;
64353;SDS011;50681;53.334;-6.536;2023-07-09T13:58:11;4.65;;;1.33;;
64353;SDS011;50681;53.334;-6.536;2023-07-09T14:00:39;3.90;;;1.23;;
64353;SDS011;50681;53.334;-6.536;2023-07-09T14:03:17;4.78;;;1.10;;
64353;SDS011;50681;53.334;-6.536;2023-07-09T14:05:43;3.92;;;0.98;;
64353;SDS011;50681;53.334;-6.536;2023-07-09T14:08:09;4.85;;;1.23;;
64353;SDS011;50681;53.334;-6.536;2023-07-09T14:10:35;5.28;;;1.23;;
64353;SDS011;50681;53.334;-6.536;2023-07-09T14:13:01;3.78;;;1.15;;
64353;SDS011;50681;53.334;-6.536;2023-07-09T14:15:27;5.75;;;1.08;;
64353;SDS011;50681;53.334;-6.536;2023-07-09T14:17:53;2.67;;;0.90;;
64353;SDS011;50681;53.334;-6.536;2023-07-09T14:20:20;4.07;;;1.25;;
64353;SDS011;50681;53.334;-6.536;2023-07-09T14:25:23;5.30;;;1.45;;
64353;SDS011;50681;53.334;-6.536;2023-07-09T14:27:50;4.05;;;1.25;;
64353;SDS011;50681;53.334;-6.536;2023-07-09T14:30:18;4.45;;;1.58;;
64353;SDS011;50681;53.334;-6.536;2023-07-09T14:32:46;5.00;;;1.35;;
64353;SDS011;50681;53.334;-6.536;2023-07-09T14:35:23;3.63;;;1.42;;
64353;SDS011;50681;53.334;-6.536;2023-07-09T14:37:52;4.50;;;1.42;;
64353;SDS011;50681;53.334;-6.536;2023-07-09T14:40:19;5.85;;;1.27;;
64353;SDS011;50681;53.334;-6.536;2023-07-09T14:42:45;7.43;;;1.70;;
64353;SDS011;50681;53.334;-6.536;2023-07-09T14:45:22;5.03;;;1.70;;
64353;SDS011;50681;53.334;-6.536;2023-07-09T14:47:51;6.20;;;1.50;;
64353;SDS011;50681;53.334;-6.536;2023-07-09T14:50:18;6.60;;;1.63;;
64353;SDS011;50681;53.334;-6.536;2023-07-09T14:52:45;5.38;;;1.20;;
64353;SDS011;50681;53.334;-6.536;2023-07-09T14:55:16;6.55;;;1.48;;
64353;SDS011;50681;53.334;-6.536;2023-07-09T14:57:43;7.60;;;1.58;;
64353;SDS011;50681;53.334;-6.536;2023-07-09T15:00:16;4.30;;;1.17;;
64353;SDS011;50681;53.334;-6.536;2023-07-09T15:02:48;5.20;;;1.48;;
64353;SDS011;50681;53.334;-6.536;2023-07-09T15:05:20;4.60;;;1.25;;
64353;SDS011;50681;53.334;-6.536;2023-07-09T15:07:48;6.15;;;1.20;;
64353;SDS011;50681;53.334;-6.536;2023-07-09T15:10:17;9.07;;;2.15;;
64353;SDS011;50681;53.334;-6.536;2023-07-09T15:12:45;6.68;;;1.25;;
64353;SDS011;50681;53.334;-6.536;2023-07-09T15:15:20;3.38;;;0.90;;
64353;SDS011;50681;53.334;-6.536;2023-07-09T15:17:54;5.43;;;1.05;;
64353;SDS011;50681;53.334;-6.536;2023-07-09T15:20:24;8.73;;;1.25;;
64353;SDS011;50681;53.334;-6.536;2023-07-09T15:22:56;3.33;;;1.98;;
64353;SDS011;50681;53.334;-6.536;2023-07-09T15:25:24;4.82;;;1.70;;
64353;SDS011;50681;53.334;-6.536;2023-07-09T15:27:52;3.22;;;1.30;;
64353;SDS011;50681;53.334;-6.536;2023-07-09T15:32:45;4.10;;;1.20;;
64353;SDS011;50681;53.334;-6.536;2023-07-09T15:35:11;4.90;;;3.08;;
64353;SDS011;50681;53.334;-6.536;2023-07-09T15:37:37;4.47;;;1.33;;
64353;SDS011;50681;53.334;-6.536;2023-07-09T15:42:30;4.15;;;1.15;;
64353;SDS011;50681;53.334;-6.536;2023-07-09T15:47:21;5.25;;;1.02;;
64353;SDS011;50681;53.334;-6.536;2023-07-09T15:49:51;5.65;;;1.33;;
64353;SDS011;50681;53.334;-6.536;2023-07-09T15:52:19;3.65;;;1.10;;
64353;SDS011;50681;53.334;-6.536;2023-07-09T15:57:13;3.42;;;1.00;;
64353;SDS011;50681;53.334;-6.536;2023-07-09T15:59:41;4.70;;;1.13;;
64353;SDS011;50681;53.334;-6.536;2023-07-09T16:04:42;6.90;;;1.45;;
64353;SDS011;50681;53.334;-6.536;2023-07-09T16:07:09;3.85;;;1.10;;